Time;durP1;ratioP1;P1;durP2;ratioP2;P2;SDS_P1;SDS_P2;PMS_P1;PMS_P2;Temp;Humidity;BMP_temperature;BMP_pressure;BME280_temperature;BME280_humidity;BME280_pressure;Samples;Min_cycle;Max_cycle;Signal;HPM_P1;HPM_P2
2022/03/31 00:01:41;;;;;;;;;46.00;39.00;;;;;9.91;68.39;99811.56;5070708;28;45322;-68
2022/03/31 00:04:06;;;;;;;;;51.50;40.50;;;;;9.94;67.96;99811.22;5067928;28;45329;-68
2022/03/31 00:06:32;;;;;;;;;52.25;41.00;;;;;9.91;68.09;99798.00;5073536;27;45566;-68
2022/03/31 00:08:57;;;;;;;;;53.50;41.75;;;;;9.95;67.59;99804.75;5066249;28;45359;-68
2022/03/31 00:11:23;;;;;;;;;51.00;41.00;;;;;10.00;67.01;99802.44;5068968;28;45438;-68
2022/03/31 00:13:49;;;;;;;;;42.75;36.75;;;;;10.10;66.76;99808.53;5065850;28;45643;-68
2022/03/31 00:16:14;;;;;;;;;35.00;27.75;;;;;10.13;66.31;99802.78;5074523;28;46110;-68
2022/03/31 00:18:39;;;;;;;;;40.50;36.00;;;;;10.13;66.59;99802.78;5072917;28;45482;-68
2022/03/31 00:21:05;;;;;;;;;40.50;35.50;;;;;10.20;66.07;99802.13;5074980;28;45351;-68
2022/03/31 00:23:31;;;;;;;;;46.00;35.00;;;;;10.14;65.90;99806.34;5082341;28;45382;-68
2022/03/31 00:25:57;;;;;;;;;37.25;33.75;;;;;10.04;65.61;99798.34;5070503;28;45417;-68
2022/03/31 00:28:23;;;;;;;;;46.00;36.50;;;;;10.00;65.66;99796.16;5083549;27;45510;-68
2022/03/31 00:30:49;;;;;;;;;47.00;39.00;;;;;9.99;65.19;99799.88;5068511;27;45322;-68
2022/03/31 00:33:15;;;;;;;;;50.25;39.25;;;;;10.00;65.17;99801.56;5080498;28;45160;-68
2022/03/31 00:35:41;;;;;;;;;43.75;36.00;;;;;10.05;65.15;99797.31;5068440;28;45276;-68
2022/03/31 00:38:06;;;;;;;;;39.25;31.75;;;;;10.08;66.02;99796.97;5078789;28;45355;-68
2022/03/31 00:40:32;;;;;;;;;32.25;29.00;;;;;10.08;65.84;99793.44;5068086;28;45387;-68
2022/03/31 00:42:58;;;;;;;;;43.25;37.50;;;;;9.94;65.10;99794.94;5065375;28;45457;-68
2022/03/31 00:45:29;;;;;;;;;45.75;35.25;;;;;10.00;65.90;99790.72;5066776;28;45584;-68
2022/03/31 00:47:55;;;;;;;;;39.50;35.00;;;;;10.03;66.02;99791.22;5076161;28;45372;-68
2022/03/31 00:50:25;;;;;;;;;36.50;29.00;;;;;9.99;66.05;99784.44;5066604;27;45459;-68
2022/03/31 00:52:50;;;;;;;;;41.25;32.50;;;;;10.03;65.74;99780.34;5071243;28;45644;-68
2022/03/31 00:55:18;;;;;;;;;47.50;35.50;;;;;10.06;65.20;99774.59;5064457;28;48698;-68
2022/03/31 00:57:45;;;;;;;;;44.00;37.25;;;;;10.01;65.57;99776.97;5072671;28;45161;-68
2022/03/31 01:00:14;;;;;;;;;33.50;29.50;;;;;9.92;65.69;99785.28;5065495;28;45258;-68
2022/03/31 01:02:40;;;;;;;;;44.25;37.75;;;;;9.96;65.73;99770.34;5079283;28;45489;-68
2022/03/31 01:05:06;;;;;;;;;35.75;32.50;;;;;9.92;66.14;99769.00;5068340;28;46828;-69
2022/03/31 01:07:38;;;;;;;;;43.50;36.25;;;;;9.86;66.16;99764.25;5068342;28;45424;-68
2022/03/31 01:10:05;;;;;;;;;43.50;36.50;;;;;9.80;66.26;99763.03;5064434;28;45397;-68
2022/03/31 01:12:31;;;;;;;;;32.00;29.50;;;;;9.68;66.66;99764.38;5067768;28;45427;-68
2022/03/31 01:15:15;;;;;;;;;33.75;28.75;;;;;9.57;66.64;99765.53;5078030;28;47109;-68
2022/03/31 01:17:42;;;;;;;;;46.00;37.00;;;;;9.48;68.35;99762.97;5078835;28;45412;-68
2022/03/31 01:20:11;;;;;;;;;45.50;36.75;;;;;9.46;67.59;99757.72;5062699;28;45397;-68
2022/03/31 01:22:37;;;;;;;;;45.25;39.25;;;;;9.44;67.75;99773.28;5076456;28;45627;-68
2022/03/31 01:25:06;;;;;;;;;43.25;36.50;;;;;9.34;67.74;99768.03;5062278;28;45414;-68
2022/03/31 01:27:35;;;;;;;;;41.25;35.25;;;;;9.36;68.45;99757.00;5075349;27;45575;-69
2022/03/31 01:30:01;;;;;;;;;40.50;35.75;;;;;9.30;68.50;99757.66;5078326;28;45441;-68
2022/03/31 01:32:26;;;;;;;;;44.00;35.25;;;;;9.29;68.74;99756.81;5075187;28;45358;-68
2022/03/31 01:34:51;;;;;;;;;50.25;38.75;;;;;9.21;68.53;99759.50;5072280;28;45378;-68
2022/03/31 01:37:17;;;;;;;;;44.75;38.25;;;;;9.20;69.00;99741.56;5073843;28;45960;-68
2022/03/31 01:39:42;;;;;;;;;46.00;38.25;;;;;9.14;69.01;99749.47;5071886;28;45319;-68
2022/03/31 01:42:09;;;;;;;;;45.50;36.00;;;;;9.18;68.79;99757.13;5076792;28;45347;-68
2022/03/31 01:44:35;;;;;;;;;52.75;40.75;;;;;9.07;69.49;99746.56;5072982;28;46366;-68
2022/03/31 01:47:01;;;;;;;;;55.00;41.25;;;;;9.04;69.98;99748.75;5074665;28;45360;-68
2022/03/31 01:49:26;;;;;;;;;53.00;39.00;;;;;8.90;69.97;99742.09;5077194;28;45315;-68
2022/03/31 01:51:52;;;;;;;;;53.50;40.75;;;;;8.70;70.13;99736.06;5073948;28;45510;-68
2022/03/31 01:54:17;;;;;;;;;37.75;35.00;;;;;8.69;70.76;99733.53;5070231;28;45409;-68
2022/03/31 01:56:44;;;;;;;;;59.75;43.00;;;;;8.63;70.79;99742.28;5080265;28;45932;-68
2022/03/31 01:59:10;;;;;;;;;60.00;45.00;;;;;8.55;71.21;99727.69;5070404;28;45528;-68
2022/03/31 02:01:36;;;;;;;;;48.25;38.00;;;;;8.61;71.68;99726.22;5077131;28;45604;-68
2022/03/31 02:04:01;;;;;;;;;58.75;44.75;;;;;8.62;72.00;99721.66;5068564;28;45473;-69
2022/03/31 02:06:26;;;;;;;;;57.75;43.50;;;;;8.64;71.74;99722.31;5074361;28;45436;-68
2022/03/31 02:08:52;;;;;;;;;58.25;42.00;;;;;8.64;72.08;99725.88;5075346;28;45460;-68
2022/03/31 02:11:18;;;;;;;;;54.50;43.25;;;;;8.64;71.87;99725.03;5073452;27;45438;-69
2022/03/31 02:13:44;;;;;;;;;59.50;47.25;;;;;8.62;71.92;99721.66;5075010;28;45404;-69
2022/03/31 02:16:10;;;;;;;;;59.00;43.75;;;;;8.54;71.98;99717.88;5069821;28;45382;-68
2022/03/31 02:18:35;;;;;;;;;61.25;47.00;;;;;8.63;71.88;99723.31;5083935;28;45349;-69
2022/03/31 02:21:01;;;;;;;;;60.75;43.75;;;;;8.62;71.59;99716.25;5071352;28;45312;-68
2022/03/31 02:23:26;;;;;;;;;53.00;45.00;;;;;8.55;71.76;99721.41;5076329;28;45321;-68
2022/03/31 02:25:51;;;;;;;;;58.75;47.00;;;;;8.52;72.15;99717.19;5066065;28;45211;-69
2022/03/31 02:28:17;;;;;;;;;61.50;45.75;;;;;8.48;72.12;99729.34;5085366;27;45256;-68
2022/03/31 02:30:42;;;;;;;;;54.00;38.50;;;;;8.35;72.38;99718.09;5070234;27;45325;-68
2022/03/31 02:33:08;;;;;;;;;64.25;49.00;;;;;8.30;72.29;99720.41;5076167;28;45368;-68
2022/03/31 02:35:33;;;;;;;;;57.50;46.25;;;;;8.21;72.76;99724.91;5065635;28;45431;-68
2022/03/31 02:37:58;;;;;;;;;62.00;45.75;;;;;8.21;72.58;99724.06;5080156;28;45526;-68
2022/03/31 02:40:24;;;;;;;;;59.00;45.50;;;;;8.21;72.99;99713.22;5070530;28;45302;-68
2022/03/31 02:42:50;;;;;;;;;56.25;45.25;;;;;8.23;72.56;99718.50;5078549;28;46316;-68
2022/03/31 02:45:15;;;;;;;;;58.75;46.25;;;;;8.08;72.88;99719.06;5070043;28;45480;-68
2022/03/31 02:47:44;;;;;;;;;56.25;45.25;;;;;8.03;72.86;99715.13;5076197;28;45573;-68
2022/03/31 02:50:10;;;;;;;;;63.25;51.50;;;;;8.13;72.70;99722.13;5069976;28;45483;-68
2022/03/31 02:55:28;;;;;;;;;64.25;48.75;;;;;8.11;72.95;99717.88;5067160;28;45362;-68
2022/03/31 02:57:54;;;;;;;;;64.00;46.75;;;;;8.14;72.89;99713.00;5084292;28;45526;-68
2022/03/31 03:00:20;;;;;;;;;64.00;48.50;;;;;8.04;72.88;99701.44;5065659;27;45359;-68
2022/03/31 03:02:46;;;;;;;;;68.25;50.75;;;;;8.13;72.66;99715.88;5079383;28;47174;-68
2022/03/31 03:05:11;;;;;;;;;69.25;52.00;;;;;8.12;72.69;99711.47;5068185;28;45379;-68
2022/03/31 03:07:37;;;;;;;;;66.75;50.00;;;;;8.13;72.84;99707.75;5068949;28;45775;-68
2022/03/31 03:10:03;;;;;;;;;74.75;52.50;;;;;8.21;72.26;99713.22;5063919;28;45442;-68
2022/03/31 03:12:28;;;;;;;;;67.25;51.50;;;;;8.16;72.70;99713.72;5067748;28;45433;-68
2022/03/31 03:14:53;;;;;;;;;58.50;43.75;;;;;8.14;72.76;99706.75;5063758;28;45339;-68
2022/03/31 03:17:19;;;;;;;;;68.50;49.75;;;;;8.10;72.81;99705.38;5078260;28;45432;-68
2022/03/31 03:19:44;;;;;;;;;62.75;46.50;;;;;8.12;72.94;99704.19;5079439;28;45229;-68
2022/03/31 03:22:09;;;;;;;;;54.25;46.25;;;;;8.07;72.96;99700.28;5075404;28;45619;-68
2022/03/31 03:24:35;;;;;;;;;64.50;50.00;;;;;7.95;73.11;99694.28;5064242;28;45307;-68
2022/03/31 03:27:01;;;;;;;;;65.50;52.00;;;;;7.96;72.78;99693.28;5071019;28;48067;-68
2022/03/31 03:29:27;;;;;;;;;65.75;50.00;;;;;7.98;72.80;99691.25;5077654;27;45329;-69
2022/03/31 03:31:53;;;;;;;;;62.00;49.00;;;;;7.98;72.81;99684.97;5073948;28;45708;-68
2022/03/31 03:34:19;;;;;;;;;65.75;51.25;;;;;7.91;72.77;99675.81;5065072;28;45326;-68
2022/03/31 03:36:44;;;;;;;;;64.25;50.50;;;;;7.89;72.97;99685.97;5071865;28;45283;-68
2022/03/31 03:39:11;;;;;;;;;72.00;55.25;;;;;7.86;72.98;99689.81;5074644;28;45380;-68
2022/03/31 03:41:37;;;;;;;;;64.50;48.00;;;;;7.86;73.08;99681.69;5071974;28;48071;-69
2022/03/31 03:44:03;;;;;;;;;70.00;52.00;;;;;7.88;72.92;99677.00;5073210;28;45342;-68
2022/03/31 03:46:29;;;;;;;;;61.00;49.00;;;;;7.86;73.42;99681.69;5071169;28;45472;-68
2022/03/31 03:48:54;;;;;;;;;62.25;52.50;;;;;7.81;72.95;99678.63;5068348;28;45301;-68
2022/03/31 03:51:20;;;;;;;;;64.75;50.50;;;;;7.79;73.18;99677.94;5069422;28;46330;-68
2022/03/31 03:53:45;;;;;;;;;66.75;49.75;;;;;7.86;73.49;99680.84;5070764;28;45463;-68
2022/03/31 03:56:11;;;;;;;;;64.25;51.00;;;;;7.85;72.78;99679.16;5068375;28;45423;-68
2022/03/31 03:58:36;;;;;;;;;64.25;48.50;;;;;7.83;72.21;99682.84;5069337;28;45673;-69
2022/03/31 04:01:01;;;;;;;;;67.50;51.50;;;;;7.80;72.75;99682.34;5066285;28;45459;-68
2022/03/31 04:03:27;;;;;;;;;63.75;48.75;;;;;7.90;72.39;99683.06;5067420;28;45463;-68
2022/03/31 04:05:54;;;;;;;;;52.50;40.50;;;;;7.85;72.07;99685.41;5075403;28;45479;-68
2022/03/31 04:08:21;;;;;;;;;62.25;50.50;;;;;7.80;71.78;99688.59;5073905;28;45614;-68
2022/03/31 04:10:46;;;;;;;;;61.00;47.75;;;;;7.73;71.57;99687.53;5073493;28;46487;-68
2022/03/31 04:13:11;;;;;;;;;71.00;49.25;;;;;7.68;71.88;99684.41;5065095;27;45371;-68
2022/03/31 04:15:37;;;;;;;;;63.50;48.75;;;;;7.74;71.79;99688.38;5063611;28;45338;-69
2022/03/31 04:18:05;;;;;;;;;60.50;47.25;;;;;7.64;71.72;99676.78;5077341;28;45319;-68
2022/03/31 04:20:31;;;;;;;;;69.25;52.25;;;;;7.61;71.95;99694.16;5069261;28;47944;-68
2022/03/31 04:22:56;;;;;;;;;63.75;48.75;;;;;7.64;72.02;99691.16;5071069;28;45484;-68
2022/03/31 04:25:23;;;;;;;;;69.00;47.50;;;;;7.63;72.11;99686.75;5077985;28;45528;-68
2022/03/31 04:27:49;;;;;;;;;65.50;49.75;;;;;7.53;71.82;99685.09;5078715;27;45578;-68
2022/03/31 04:30:18;;;;;;;;;67.00;47.50;;;;;7.50;71.53;99689.00;5069318;28;48020;-68
2022/03/31 04:32:44;;;;;;;;;64.25;51.50;;;;;7.44;71.89;99695.03;5074581;28;45326;-68
2022/03/31 04:35:10;;;;;;;;;63.25;49.50;;;;;7.45;71.87;99688.63;5062412;28;45326;-68
2022/03/31 04:37:37;;;;;;;;;55.25;43.00;;;;;7.49;72.06;99703.50;5077978;28;45787;-68
2022/03/31 04:40:04;;;;;;;;;62.25;50.00;;;;;7.52;72.04;99695.09;5076468;28;47050;-68
2022/03/31 04:42:29;;;;;;;;;58.00;44.75;;;;;7.46;71.65;99701.09;5074533;28;45392;-68
2022/03/31 04:44:55;;;;;;;;;70.00;50.75;;;;;7.50;72.21;99694.41;5068307;28;45395;-68
2022/03/31 04:47:21;;;;;;;;;70.50;53.25;;;;;7.44;71.76;99686.91;5072184;28;45448;-68
2022/03/31 04:49:46;;;;;;;;;69.00;52.75;;;;;7.51;71.52;99692.53;5068063;28;46994;-69
2022/03/31 04:52:12;;;;;;;;;75.50;51.00;;;;;7.47;71.74;99686.59;5070053;28;45432;-68
2022/03/31 04:54:43;;;;;;;;;72.50;54.50;;;;;7.45;71.53;99679.66;5066197;28;45219;-68
2022/03/31 04:57:09;;;;;;;;;78.25;58.00;;;;;7.45;72.14;99675.09;5068025;28;45482;-68
2022/03/31 04:59:35;;;;;;;;;68.75;52.75;;;;;7.44;72.05;99686.91;5066408;28;46678;-68
2022/03/31 05:02:00;;;;;;;;;71.00;52.75;;;;;7.42;72.05;99686.22;5065407;28;45446;-69
2022/03/31 05:04:26;;;;;;;;;66.50;52.25;;;;;7.41;72.29;99684.50;5069648;28;45398;-69
2022/03/31 05:06:51;;;;;;;;;54.25;42.50;;;;;7.45;72.24;99682.34;5070133;28;45535;-68
2022/03/31 05:09:16;;;;;;;;;66.75;51.75;;;;;7.46;72.04;99682.19;5069944;28;46348;-69
2022/03/31 05:11:42;;;;;;;;;73.00;53.00;;;;;7.49;72.01;99692.69;5067227;27;45398;-68
2022/03/31 05:14:07;;;;;;;;;75.75;54.50;;;;;7.33;71.81;99693.38;5070597;28;45577;-68
2022/03/31 05:16:32;;;;;;;;;67.25;50.00;;;;;7.31;72.20;99692.69;5074535;27;45351;-69
2022/03/31 05:18:58;;;;;;;;;73.50;54.00;;;;;7.35;72.16;99693.22;5068533;27;46825;-69
2022/03/31 05:21:23;;;;;;;;;63.75;50.25;;;;;7.36;72.15;99697.63;5067028;28;45411;-70
2022/03/31 05:23:49;;;;;;;;;69.50;53.50;;;;;7.41;71.99;99703.41;5078758;28;45745;-69
2022/03/31 05:26:14;;;;;;;;;73.50;55.25;;;;;7.34;72.43;99702.34;5066949;27;45278;-69
2022/03/31 05:28:40;;;;;;;;;73.50;55.00;;;;;7.38;72.50;99709.13;5081806;27;47062;-68
2022/03/31 05:31:06;;;;;;;;;69.75;52.25;;;;;7.34;72.68;99705.03;5066238;28;45480;-69
2022/03/31 05:33:31;;;;;;;;;75.75;57.00;;;;;7.36;72.77;99700.34;5080260;28;45404;-69
2022/03/31 05:35:58;;;;;;;;;78.25;56.25;;;;;7.43;72.72;99712.22;5066736;27;45677;-69
2022/03/31 05:38:23;;;;;;;;;67.25;51.50;;;;;7.20;73.37;99713.66;5076110;28;45425;-68
2022/03/31 05:40:49;;;;;;;;;74.50;57.75;;;;;7.18;72.99;99715.66;5064656;28;45401;-69
2022/03/31 05:43:15;;;;;;;;;75.00;57.50;;;;;7.26;73.78;99719.31;5080392;28;45345;-68
2022/03/31 05:45:40;;;;;;;;;71.25;53.75;;;;;7.38;72.85;99725.34;5063025;27;45315;-69
2022/03/31 05:48:06;;;;;;;;;77.75;57.50;;;;;7.35;72.96;99720.25;5073778;28;45382;-69
2022/03/31 05:50:31;;;;;;;;;81.25;59.75;;;;;7.33;73.32;99716.84;5063042;27;45313;-69
2022/03/31 05:52:56;;;;;;;;;78.50;58.75;;;;;7.28;73.70;99721.88;5070489;28;45348;-69
2022/03/31 05:55:22;;;;;;;;;70.25;51.75;;;;;7.39;73.85;99719.78;5063114;28;45346;-70
2022/03/31 05:57:48;;;;;;;;;84.50;60.50;;;;;7.27;73.98;99728.28;5068940;28;45632;-69
2022/03/31 06:00:17;;;;;;;;;74.75;52.50;;;;;7.33;74.10;99725.81;5063315;28;45243;-70
2022/03/31 06:02:42;;;;;;;;;81.75;56.00;;;;;7.39;73.66;99727.88;5068598;28;45340;-68
2022/03/31 06:05:08;;;;;;;;;82.25;61.00;;;;;7.45;73.65;99721.03;5068493;28;45303;-68
2022/03/31 06:07:34;;;;;;;;;83.75;60.25;;;;;7.49;73.62;99732.38;5066346;28;46479;-68
2022/03/31 06:09:59;;;;;;;;;81.25;60.00;;;;;7.57;73.46;99736.03;5061965;28;45339;-68
2022/03/31 06:12:25;;;;;;;;;86.00;63.00;;;;;7.51;73.49;99733.94;5065246;28;45541;-67
2022/03/31 06:14:50;;;;;;;;;79.75;56.25;;;;;7.60;73.79;99746.50;5062550;28;45327;-68
2022/03/31 06:17:15;;;;;;;;;84.00;61.50;;;;;7.70;73.05;99741.88;5074304;28;46329;-69
2022/03/31 06:19:41;;;;;;;;;77.50;58.00;;;;;7.76;72.50;99743.13;5065755;28;45350;-70
2022/03/31 06:22:08;;;;;;;;;83.00;58.75;;;;;7.74;72.89;99748.66;5077930;28;45434;-68
2022/03/31 06:24:34;;;;;;;;;86.25;59.75;;;;;7.79;72.66;99740.97;5062480;27;45452;-67
2022/03/31 06:27:00;;;;;;;;;77.00;57.00;;;;;7.85;72.66;99739.50;5073406;28;45491;-69
2022/03/31 06:29:27;;;;;;;;;79.75;58.50;;;;;8.00;72.19;99740.63;5081935;27;45323;-69
2022/03/31 06:31:53;;;;;;;;;83.25;60.50;;;;;8.01;71.43;99746.91;5071262;28;45349;-70
2022/03/31 06:34:19;;;;;;;;;71.75;55.75;;;;;8.01;70.81;99736.94;5065340;27;45413;-69
2022/03/31 06:36:45;;;;;;;;;74.75;56.75;;;;;8.08;71.12;99745.25;5072411;28;45971;-70
2022/03/31 06:39:10;;;;;;;;;71.00;53.00;;;;;7.82;70.53;99740.63;5073786;27;45402;-70
2022/03/31 06:41:36;;;;;;;;;75.00;54.50;;;;;7.80;71.03;99748.06;5070261;28;45331;-72
2022/03/31 06:44:02;;;;;;;;;80.50;60.50;;;;;7.98;71.10;99739.09;5074021;28;45340;-70
2022/03/31 06:46:27;;;;;;;;;78.00;57.50;;;;;8.05;71.09;99730.19;5070780;28;45314;-70
2022/03/31 06:48:53;;;;;;;;;76.75;57.00;;;;;8.25;70.44;99730.88;5079240;28;45349;-70
2022/03/31 06:51:18;;;;;;;;;75.50;55.25;;;;;8.37;69.64;99724.19;5071697;28;45438;-70
2022/03/31 06:53:44;;;;;;;;;76.75;56.00;;;;;8.37;69.24;99721.50;5072061;28;45415;-69
2022/03/31 06:56:13;;;;;;;;;73.25;56.50;;;;;8.30;69.45;99730.38;5068831;28;46265;-70
2022/03/31 06:58:39;;;;;;;;;72.75;56.25;;;;;8.26;69.79;99732.53;5070159;28;45405;-69
2022/03/31 07:01:05;;;;;;;;;77.25;57.00;;;;;8.33;69.39;99732.81;5067583;28;45375;-71
2022/03/31 07:03:31;;;;;;;;;72.00;53.50;;;;;8.37;69.21;99736.88;5067667;28;45315;-70
2022/03/31 07:05:56;;;;;;;;;73.50;51.00;;;;;8.53;69.32;99729.72;5069187;28;47057;-69
2022/03/31 07:08:22;;;;;;;;;73.25;55.00;;;;;8.76;68.47;99734.59;5075355;28;45291;-69
2022/03/31 07:10:48;;;;;;;;;71.50;51.75;;;;;8.76;68.16;99732.72;5071979;28;45392;-69
2022/03/31 07:13:13;;;;;;;;;73.75;53.75;;;;;8.81;68.31;99746.63;5073288;27;45490;-70
2022/03/31 07:15:38;;;;;;;;;73.00;54.00;;;;;8.78;68.68;99740.66;5070366;28;47195;-69
2022/03/31 07:18:05;;;;;;;;;67.50;52.50;;;;;8.86;67.74;99729.88;5072135;27;45441;-70
2022/03/31 07:20:31;;;;;;;;;80.50;58.00;;;;;8.96;67.92;99730.63;5070918;28;45638;-71
2022/03/31 07:22:56;;;;;;;;;66.75;51.00;;;;;8.91;67.67;99741.91;5094427;27;45533;-70
2022/03/31 07:25:22;;;;;;;;;70.00;50.75;;;;;8.90;68.27;99736.69;5070419;28;47577;-69
2022/03/31 07:27:48;;;;;;;;;71.00;53.75;;;;;8.83;68.09;99733.78;5081905;27;45357;-70
2022/03/31 07:30:16;;;;;;;;;73.00;53.75;;;;;8.74;68.31;99739.31;5072580;28;45296;-70
2022/03/31 07:32:59;;;;;;;;;68.00;54.75;;;;;8.90;68.55;99748.38;5076640;28;45496;-70
2022/03/31 07:35:29;;;;;;;;;71.25;54.75;;;;;8.84;68.62;99748.19;5068981;27;45400;-70
2022/03/31 07:37:55;;;;;;;;;75.25;55.25;;;;;8.76;69.35;99745.41;5075032;28;45347;-70
2022/03/31 07:40:22;;;;;;;;;66.00;52.25;;;;;8.78;69.19;99762.34;5067996;28;45345;-70
2022/03/31 07:42:48;;;;;;;;;63.25;52.25;;;;;8.84;69.38;99753.59;5075088;28;45498;-70
2022/03/31 07:45:13;;;;;;;;;71.75;51.75;;;;;8.89;69.48;99756.66;5068219;27;46150;-69
2022/03/31 07:47:43;;;;;;;;;72.75;53.25;;;;;8.63;70.35;99758.53;5075777;28;45403;-70
2022/03/31 07:50:10;;;;;;;;;81.00;58.00;;;;;8.49;71.52;99760.81;5066576;28;45386;-70
2022/03/31 07:52:37;;;;;;;;;75.25;54.25;;;;;8.49;72.11;99763.53;5071026;28;45353;-70
2022/03/31 07:55:04;;;;;;;;;70.25;53.75;;;;;8.33;73.94;99771.53;5068416;28;48249;-70
2022/03/31 07:57:30;;;;;;;;;69.00;53.00;;;;;8.08;74.72;99764.19;5072935;28;45419;-68
2022/03/31 07:59:55;;;;;;;;;70.50;51.50;;;;;8.11;75.90;99764.72;5067931;28;45425;-70
2022/03/31 08:02:21;;;;;;;;;61.00;47.00;;;;;7.94;76.04;99772.88;5074782;27;45400;-70
2022/03/31 08:04:46;;;;;;;;;62.75;50.50;;;;;7.88;77.13;99776.19;5070559;28;47971;-70
2022/03/31 08:07:12;;;;;;;;;58.25;46.25;;;;;7.72;76.94;99782.28;5072068;28;45324;-70
2022/03/31 08:09:37;;;;;;;;;35.25;30.75;;;;;7.45;75.05;99787.75;5068572;27;45306;-69
2022/03/31 08:12:04;;;;;;;;;41.25;33.25;;;;;7.39;75.60;99786.47;5066822;28;44865;-69
2022/03/31 08:14:30;;;;;;;;;27.00;27.00;;;;;7.09;74.88;99803.84;5079376;27;47266;-69
2022/03/31 08:16:56;;;;;;;;;16.50;15.25;;;;;6.95;74.99;99813.28;5071989;28;45490;-69
2022/03/31 08:19:21;;;;;;;;;29.00;26.00;;;;;7.04;74.27;99814.25;5066865;28;45384;-69
2022/03/31 08:21:48;;;;;;;;;22.75;18.25;;;;;7.03;74.52;99818.81;5068457;28;45508;-69
2022/03/31 08:24:15;;;;;;;;;26.00;26.00;;;;;6.91;74.65;99824.56;5078893;28;48461;-69
2022/03/31 08:26:41;;;;;;;;;21.75;20.75;;;;;6.92;73.64;99815.44;5069023;28;45414;-69
2022/03/31 08:29:08;;;;;;;;;21.00;19.50;;;;;6.83;72.39;99838.78;5083167;27;45510;-68
2022/03/31 08:31:34;;;;;;;;;17.25;17.25;;;;;6.51;72.23;99831.03;5071023;28;45405;-70
2022/03/31 08:34:01;;;;;;;;;15.00;12.00;;;;;6.52;72.00;99838.13;5066741;28;45974;-70
2022/03/31 08:36:26;;;;;;;;;16.75;16.75;;;;;6.44;71.93;99842.56;5069853;28;45353;-69
2022/03/31 08:38:52;;;;;;;;;18.25;14.75;;;;;6.52;72.07;99839.97;5070954;28;45449;-70
2022/03/31 08:41:19;;;;;;;;;20.75;18.75;;;;;6.44;72.20;99847.94;5070856;28;45240;-70
2022/03/31 08:43:44;;;;;;;;;13.75;11.75;;;;;6.38;73.49;99860.16;5080071;28;47526;-70
2022/03/31 08:46:10;;;;;;;;;18.75;15.50;;;;;6.35;72.75;99855.09;5067338;28;45408;-70
2022/03/31 08:48:37;;;;;;;;;17.00;14.75;;;;;6.32;73.04;99855.34;5073936;28;45326;-68
2022/03/31 08:51:04;;;;;;;;;22.75;18.75;;;;;6.37;72.58;99876.50;5069770;28;45449;-69
2022/03/31 08:53:30;;;;;;;;;15.00;15.00;;;;;6.36;72.25;99881.03;5068180;28;45322;-70
2022/03/31 08:55:55;;;;;;;;;23.25;20.25;;;;;6.22;73.59;99874.22;5068835;28;45360;-69
2022/03/31 08:58:20;;;;;;;;;15.25;11.75;;;;;6.10;75.93;99875.38;5070647;28;45988;-69
2022/03/31 09:00:46;;;;;;;;;20.50;18.50;;;;;6.21;75.31;99890.53;5064877;28;45651;-69
2022/03/31 09:03:11;;;;;;;;;15.25;13.25;;;;;6.14;75.27;99895.66;5068380;28;46928;-69
2022/03/31 09:05:45;;;;;;;;;16.50;11.50;;;;;6.01;76.25;99903.16;5065233;28;45300;-69
2022/03/31 09:08:15;;;;;;;;;16.75;16.75;;;;;5.98;77.26;99905.31;5077051;28;45268;-69
2022/03/31 09:10:49;;;;;;;;;18.50;15.75;;;;;5.94;77.51;99918.22;5081889;28;45389;-68
2022/03/31 09:13:25;;;;;;;;;19.25;17.75;;;;;5.98;77.31;99925.03;5071104;28;45544;-70
2022/03/31 09:15:51;;;;;;;;;16.00;14.00;;;;;6.05;75.76;99931.56;5071717;28;45367;-70
2022/03/31 09:18:19;;;;;;;;;13.75;12.25;;;;;6.11;76.15;99932.84;5075076;28;45444;-69
2022/03/31 09:20:46;;;;;;;;;14.00;14.00;;;;;5.93;78.30;99943.47;5068913;28;45287;-71
2022/03/31 09:23:17;;;;;;;;;17.50;13.75;;;;;5.90;77.55;99938.34;5079666;28;47974;-70
2022/03/31 09:25:44;;;;;;;;;19.00;16.50;;;;;5.91;77.44;99947.31;5068515;28;45258;-70
2022/03/31 09:28:21;;;;;;;;;6.00;6.00;;;;;5.67;76.13;99944.91;5083740;27;45387;-70
2022/03/31 09:30:56;;;;;;;;;13.50;12.75;;;;;5.77;76.84;99945.81;5068075;28;45317;-70
2022/03/31 09:33:31;;;;;;;;;12.00;12.00;;;;;5.75;77.26;99954.03;5069149;28;47210;-70
2022/03/31 09:36:02;;;;;;;;;15.50;14.00;;;;;5.68;75.87;99958.28;5065493;28;45276;-70
2022/03/31 09:38:28;;;;;;;;;14.00;13.75;;;;;5.84;76.10;99960.44;5076206;28;45295;-70
2022/03/31 09:40:54;;;;;;;;;11.75;7.00;;;;;5.86;75.89;99962.00;5065135;28;45308;-70
2022/03/31 09:43:20;;;;;;;;;14.00;10.50;;;;;5.43;77.08;99964.09;5074880;28;45378;-70
2022/03/31 09:45:45;;;;;;;;;10.25;7.75;;;;;5.35;76.39;99962.09;5061906;28;45263;-70
2022/03/31 09:48:22;;;;;;;;;10.00;8.75;;;;;5.56;78.31;99974.66;5073395;28;45378;-70
2022/03/31 09:50:49;;;;;;;;;15.00;11.50;;;;;5.62;77.94;99968.75;5082002;28;45517;-70
2022/03/31 09:53:15;;;;;;;;;7.25;7.25;;;;;5.63;76.63;99975.81;5075182;28;47151;-70
2022/03/31 09:55:45;;;;;;;;;14.75;13.50;;;;;5.59;79.00;99975.25;5074134;27;45461;-70
2022/03/31 09:58:18;;;;;;;;;18.25;12.75;;;;;5.54;78.59;99972.13;5078261;28;45406;-70
2022/03/31 10:00:45;;;;;;;;;13.50;10.25;;;;;5.61;78.21;99972.41;5069284;28;45545;-71
2022/03/31 10:03:15;;;;;;;;;16.00;14.25;;;;;5.46;78.42;99964.69;5071867;28;46136;-70
2022/03/31 10:05:42;;;;;;;;;11.75;9.00;;;;;5.71;78.14;99974.16;5076495;28;45334;-69
2022/03/31 10:08:10;;;;;;;;;14.75;13.50;;;;;5.83;78.54;99969.53;5069419;28;45398;-69
2022/03/31 10:10:37;;;;;;;;;10.25;9.00;;;;;5.88;77.98;99986.16;5065228;28;45359;-71
2022/03/31 10:13:25;;;;;;;;;6.00;5.00;;;;;5.92;77.71;99982.19;5071259;28;46564;-70
2022/03/31 10:15:59;;;;;;;;;12.00;11.25;;;;;5.94;76.69;99984.75;5065635;28;46646;-69
2022/03/31 10:18:25;;;;;;;;;10.25;9.25;;;;;5.93;77.27;99988.44;5077086;28;45405;-68
2022/03/31 10:20:56;;;;;;;;;10.75;10.50;;;;;5.94;77.68;99982.06;5067091;28;45566;-69
2022/03/31 10:26:06;;;;;;;;;11.00;11.00;;;;;6.14;78.39;99983.81;5065803;28;45279;-69
2022/03/31 10:28:31;;;;;;;;;14.25;12.00;;;;;6.36;77.49;99986.25;5083997;27;45383;-69
2022/03/31 10:30:58;;;;;;;;;7.00;5.00;;;;;6.44;76.17;99988.25;5069543;28;45697;-69
2022/03/31 10:33:43;;;;;;;;;8.50;8.50;;;;;6.55;76.52;99978.19;5075183;28;45413;-68
2022/03/31 10:36:14;;;;;;;;;5.75;5.50;;;;;6.60;74.61;99978.63;5068672;28;45274;-68
2022/03/31 10:38:59;;;;;;;;;9.50;6.75;;;;;6.57;74.86;99956.47;5080119;28;45397;-68
2022/03/31 10:41:44;;;;;;;;;4.75;3.00;;;;;6.26;73.87;99990.81;5084921;27;45458;-70
2022/03/31 10:44:12;;;;;;;;;6.00;6.00;;;;;6.27;74.57;99980.88;5070830;28;47234;-68
2022/03/31 10:46:39;;;;;;;;;5.00;5.00;;;;;6.12;74.94;99983.97;5072706;28;45413;-69
2022/03/31 10:49:10;;;;;;;;;8.50;8.50;;;;;6.28;75.51;99978.03;5072854;27;45399;-70
2022/03/31 10:51:38;;;;;;;;;8.00;6.00;;;;;6.43;75.34;99987.41;5072764;28;45369;-69
2022/03/31 10:54:05;;;;;;;;;6.00;4.00;;;;;6.76;73.75;99972.66;5072611;27;46397;-69
2022/03/31 10:56:31;;;;;;;;;11.50;9.25;;;;;7.03;73.86;99970.06;5070767;28;45314;-69
2022/03/31 10:59:02;;;;;;;;;9.75;9.75;;;;;6.91;71.89;99964.97;5067824;28;45477;-70
2022/03/31 11:01:34;;;;;;;;;3.00;3.00;;;;;7.13;72.24;99974.59;5067362;28;45367;-70
2022/03/31 11:04:06;;;;;;;;;6.50;5.25;;;;;7.31;71.10;99954.75;5066616;28;45522;-70
2022/03/31 11:06:33;;;;;;;;;9.00;7.00;;;;;7.21;69.73;99961.22;5070816;28;45477;-67
2022/03/31 11:08:58;;;;;;;;;10.50;10.50;;;;;7.18;69.60;99966.88;5065226;28;45332;-69
2022/03/31 11:11:29;;;;;;;;;11.00;7.50;;;;;7.34;70.14;99968.00;5070037;28;45164;-70
2022/03/31 11:13:58;;;;;;;;;7.00;7.00;;;;;7.67;70.16;99952.25;5075817;28;45577;-69
2022/03/31 11:16:37;;;;;;;;;8.50;8.50;;;;;7.50;68.41;99956.56;5069338;28;45294;-68
2022/03/31 11:19:04;;;;;;;;;8.50;8.50;;;;;7.54;68.94;99954.41;5067100;28;45372;-69
2022/03/31 11:21:38;;;;;;;;;11.50;11.50;;;;;7.62;68.46;99965.31;5068581;28;45403;-70
2022/03/31 11:24:07;;;;;;;;;10.00;9.33;;;;;7.66;68.83;99956.78;5066208;28;45376;-69
2022/03/31 11:26:40;;;;;;;;;14.25;14.25;;;;;7.75;68.26;99972.09;5071250;28;45376;-69
2022/03/31 11:29:14;;;;;;;;;8.25;7.75;;;;;7.75;66.81;99955.00;5080216;27;45328;-69
2022/03/31 11:31:57;;;;;;;;;13.75;12.00;;;;;7.90;66.89;99944.56;5072396;28;45847;-71